sensor_id;sensor_type;location;lat;lon;timestamp;P1;durP1;ratioP1;P2;durP2;ratioP2
61685;SDS011;47592;45.904;8.978;2024-01-30T00:00:04;28.38;;;18.17;;
61685;SDS011;47592;45.904;8.978;2024-01-30T00:02:31;28.85;;;18.05;;
61685;SDS011;47592;45.904;8.978;2024-01-30T00:04:59;32.37;;;18.13;;
61685;SDS011;47592;45.904;8.978;2024-01-30T00:07:25;28.50;;;17.35;;
61685;SDS011;47592;45.904;8.978;2024-01-30T00:09:51;28.52;;;17.20;;
61685;SDS011;47592;45.904;8.978;2024-01-30T00:12:17;27.77;;;16.55;;
61685;SDS011;47592;45.904;8.978;2024-01-30T00:14:45;30.13;;;17.88;;
61685;SDS011;47592;45.904;8.978;2024-01-30T00:17:13;28.02;;;17.13;;
61685;SDS011;47592;45.904;8.978;2024-01-30T00:19:40;28.27;;;17.25;;
61685;SDS011;47592;45.904;8.978;2024-01-30T00:22:06;27.27;;;17.73;;
61685;SDS011;47592;45.904;8.978;2024-01-30T00:24:32;27.45;;;17.55;;
61685;SDS011;47592;45.904;8.978;2024-01-30T00:26:58;27.77;;;16.58;;
61685;SDS011;47592;45.904;8.978;2024-01-30T00:29:23;27.70;;;16.75;;
61685;SDS011;47592;45.904;8.978;2024-01-30T00:31:50;24.65;;;15.65;;
61685;SDS011;47592;45.904;8.978;2024-01-30T00:34:18;27.77;;;16.60;;
61685;SDS011;47592;45.904;8.978;2024-01-30T00:36:46;33.25;;;17.58;;
61685;SDS011;47592;45.904;8.978;2024-01-30T00:39:11;28.85;;;15.95;;
61685;SDS011;47592;45.904;8.978;2024-01-30T00:41:40;29.40;;;16.73;;
61685;SDS011;47592;45.904;8.978;2024-01-30T00:44:11;30.95;;;16.63;;
61685;SDS011;47592;45.904;8.978;2024-01-30T00:46:36;28.08;;;16.25;;
61685;SDS011;47592;45.904;8.978;2024-01-30T00:49:04;26.30;;;16.83;;
61685;SDS011;47592;45.904;8.978;2024-01-30T00:51:32;31.23;;;16.98;;
61685;SDS011;47592;45.904;8.978;2024-01-30T00:53:57;25.73;;;16.63;;
61685;SDS011;47592;45.904;8.978;2024-01-30T00:56:23;26.15;;;16.33;;
61685;SDS011;47592;45.904;8.978;2024-01-30T00:58:49;24.83;;;15.13;;
61685;SDS011;47592;45.904;8.978;2024-01-30T01:01:16;25.88;;;16.02;;
61685;SDS011;47592;45.904;8.978;2024-01-30T01:03:44;26.85;;;15.63;;
61685;SDS011;47592;45.904;8.978;2024-01-30T01:06:12;28.15;;;16.52;;
61685;SDS011;47592;45.904;8.978;2024-01-30T01:08:38;26.17;;;16.45;;
61685;SDS011;47592;45.904;8.978;2024-01-30T01:11:05;24.92;;;15.35;;
61685;SDS011;47592;45.904;8.978;2024-01-30T01:13:33;25.33;;;15.15;;
61685;SDS011;47592;45.904;8.978;2024-01-30T01:15:58;25.63;;;15.50;;
61685;SDS011;47592;45.904;8.978;2024-01-30T01:18:24;26.02;;;14.80;;
61685;SDS011;47592;45.904;8.978;2024-01-30T01:20:52;25.23;;;15.38;;
61685;SDS011;47592;45.904;8.978;2024-01-30T01:23:17;25.30;;;15.60;;
61685;SDS011;47592;45.904;8.978;2024-01-30T01:25:42;23.58;;;14.50;;
61685;SDS011;47592;45.904;8.978;2024-01-30T01:28:08;24.63;;;15.65;;
61685;SDS011;47592;45.904;8.978;2024-01-30T01:30:35;23.73;;;14.38;;
61685;SDS011;47592;45.904;8.978;2024-01-30T01:33:01;26.75;;;14.88;;
61685;SDS011;47592;45.904;8.978;2024-01-30T01:35:27;25.73;;;14.85;;
61685;SDS011;47592;45.904;8.978;2024-01-30T01:37:57;22.85;;;14.48;;
61685;SDS011;47592;45.904;8.978;2024-01-30T01:40:25;21.17;;;14.27;;
61685;SDS011;47592;45.904;8.978;2024-01-30T01:42:54;25.35;;;16.00;;
61685;SDS011;47592;45.904;8.978;2024-01-30T01:45:24;27.55;;;15.23;;
61685;SDS011;47592;45.904;8.978;2024-01-30T01:47:51;22.75;;;14.43;;
61685;SDS011;47592;45.904;8.978;2024-01-30T01:50:18;23.75;;;14.65;;
61685;SDS011;47592;45.904;8.978;2024-01-30T01:52:44;24.10;;;14.95;;
61685;SDS011;47592;45.904;8.978;2024-01-30T01:55:12;26.00;;;15.02;;
61685;SDS011;47592;45.904;8.978;2024-01-30T01:57:41;22.88;;;15.27;;
61685;SDS011;47592;45.904;8.978;2024-01-30T02:00:08;25.10;;;14.70;;
61685;SDS011;47592;45.904;8.978;2024-01-30T02:02:35;26.33;;;14.98;;
61685;SDS011;47592;45.904;8.978;2024-01-30T02:05:06;23.17;;;14.70;;
61685;SDS011;47592;45.904;8.978;2024-01-30T02:07:34;26.15;;;14.50;;
61685;SDS011;47592;45.904;8.978;2024-01-30T02:09:59;23.67;;;14.75;;
61685;SDS011;47592;45.904;8.978;2024-01-30T02:12:25;25.05;;;14.65;;
61685;SDS011;47592;45.904;8.978;2024-01-30T02:14:52;25.25;;;13.73;;
61685;SDS011;47592;45.904;8.978;2024-01-30T02:17:19;22.27;;;13.20;;
61685;SDS011;47592;45.904;8.978;2024-01-30T02:19:48;23.98;;;13.88;;
61685;SDS011;47592;45.904;8.978;2024-01-30T02:22:16;24.85;;;14.15;;
61685;SDS011;47592;45.904;8.978;2024-01-30T02:24:43;25.45;;;14.18;;
61685;SDS011;47592;45.904;8.978;2024-01-30T02:27:08;23.83;;;14.63;;
61685;SDS011;47592;45.904;8.978;2024-01-30T02:29:36;24.90;;;13.50;;
61685;SDS011;47592;45.904;8.978;2024-01-30T02:32:01;26.77;;;14.07;;
61685;SDS011;47592;45.904;8.978;2024-01-30T02:34:26;21.30;;;13.60;;
61685;SDS011;47592;45.904;8.978;2024-01-30T02:36:52;24.85;;;14.40;;
61685;SDS011;47592;45.904;8.978;2024-01-30T02:39:17;31.13;;;16.60;;
61685;SDS011;47592;45.904;8.978;2024-01-30T02:41:43;29.80;;;15.63;;
61685;SDS011;47592;45.904;8.978;2024-01-30T02:44:08;34.88;;;17.08;;
61685;SDS011;47592;45.904;8.978;2024-01-30T02:46:33;32.17;;;17.77;;
61685;SDS011;47592;45.904;8.978;2024-01-30T02:48:59;28.90;;;16.05;;
61685;SDS011;47592;45.904;8.978;2024-01-30T02:51:24;29.02;;;15.48;;
61685;SDS011;47592;45.904;8.978;2024-01-30T02:53:52;25.42;;;15.07;;
61685;SDS011;47592;45.904;8.978;2024-01-30T02:56:20;30.08;;;15.35;;
61685;SDS011;47592;45.904;8.978;2024-01-30T02:58:46;27.90;;;16.50;;
61685;SDS011;47592;45.904;8.978;2024-01-30T03:01:13;27.33;;;15.18;;
61685;SDS011;47592;45.904;8.978;2024-01-30T03:03:41;23.70;;;14.05;;
61685;SDS011;47592;45.904;8.978;2024-01-30T03:06:08;28.63;;;14.30;;
61685;SDS011;47592;45.904;8.978;2024-01-30T03:08:33;23.30;;;13.95;;
61685;SDS011;47592;45.904;8.978;2024-01-30T03:11:00;26.85;;;14.15;;
61685;SDS011;47592;45.904;8.978;2024-01-30T03:13:25;25.67;;;14.02;;
61685;SDS011;47592;45.904;8.978;2024-01-30T03:15:53;22.38;;;13.30;;
61685;SDS011;47592;45.904;8.978;2024-01-30T03:18:21;21.33;;;12.95;;
61685;SDS011;47592;45.904;8.978;2024-01-30T03:20:46;23.25;;;13.45;;
61685;SDS011;47592;45.904;8.978;2024-01-30T03:23:11;21.90;;;13.10;;
61685;SDS011;47592;45.904;8.978;2024-01-30T03:25:39;25.10;;;13.32;;
61685;SDS011;47592;45.904;8.978;2024-01-30T03:28:05;22.70;;;13.68;;
61685;SDS011;47592;45.904;8.978;2024-01-30T03:30:30;24.40;;;14.18;;
61685;SDS011;47592;45.904;8.978;2024-01-30T03:32:58;22.02;;;12.57;;
61685;SDS011;47592;45.904;8.978;2024-01-30T03:35:26;24.40;;;13.55;;
61685;SDS011;47592;45.904;8.978;2024-01-30T03:37:52;22.77;;;13.20;;
61685;SDS011;47592;45.904;8.978;2024-01-30T03:40:17;24.50;;;14.15;;
61685;SDS011;47592;45.904;8.978;2024-01-30T03:42:42;25.52;;;13.82;;
61685;SDS011;47592;45.904;8.978;2024-01-30T03:45:08;21.15;;;13.23;;
61685;SDS011;47592;45.904;8.978;2024-01-30T03:47:34;19.90;;;12.60;;
61685;SDS011;47592;45.904;8.978;2024-01-30T03:50:02;23.85;;;14.00;;
61685;SDS011;47592;45.904;8.978;2024-01-30T03:52:27;24.45;;;13.63;;
61685;SDS011;47592;45.904;8.978;2024-01-30T03:54:52;21.15;;;13.27;;
61685;SDS011;47592;45.904;8.978;2024-01-30T03:57:20;20.77;;;12.98;;
61685;SDS011;47592;45.904;8.978;2024-01-30T03:59:48;20.77;;;12.38;;
61685;SDS011;47592;45.904;8.978;2024-01-30T04:02:13;23.08;;;14.15;;
61685;SDS011;47592;45.904;8.978;2024-01-30T04:04:39;22.65;;;13.07;;
61685;SDS011;47592;45.904;8.978;2024-01-30T04:07:04;24.70;;;13.18;;
61685;SDS011;47592;45.904;8.978;2024-01-30T04:09:35;21.45;;;12.90;;
61685;SDS011;47592;45.904;8.978;2024-01-30T04:12:00;21.58;;;12.63;;
61685;SDS011;47592;45.904;8.978;2024-01-30T04:14:28;23.35;;;13.32;;
61685;SDS011;47592;45.904;8.978;2024-01-30T04:16:56;21.65;;;13.00;;
61685;SDS011;47592;45.904;8.978;2024-01-30T04:19:22;20.65;;;12.38;;
61685;SDS011;47592;45.904;8.978;2024-01-30T04:21:47;23.25;;;12.85;;
61685;SDS011;47592;45.904;8.978;2024-01-30T04:24:12;23.13;;;13.57;;
61685;SDS011;47592;45.904;8.978;2024-01-30T04:26:38;22.92;;;13.50;;
61685;SDS011;47592;45.904;8.978;2024-01-30T04:29:06;21.17;;;12.30;;
61685;SDS011;47592;45.904;8.978;2024-01-30T04:31:36;20.45;;;12.77;;
61685;SDS011;47592;45.904;8.978;2024-01-30T04:34:02;23.00;;;12.93;;
61685;SDS011;47592;45.904;8.978;2024-01-30T04:36:27;22.95;;;12.73;;
61685;SDS011;47592;45.904;8.978;2024-01-30T04:38:53;24.13;;;13.20;;
61685;SDS011;47592;45.904;8.978;2024-01-30T04:41:18;22.83;;;12.88;;
61685;SDS011;47592;45.904;8.978;2024-01-30T04:43:44;21.25;;;12.95;;
61685;SDS011;47592;45.904;8.978;2024-01-30T04:46:12;22.13;;;13.13;;
61685;SDS011;47592;45.904;8.978;2024-01-30T04:48:37;21.52;;;13.15;;
61685;SDS011;47592;45.904;8.978;2024-01-30T04:51:03;21.92;;;13.00;;
61685;SDS011;47592;45.904;8.978;2024-01-30T04:53:30;21.10;;;12.85;;
61685;SDS011;47592;45.904;8.978;2024-01-30T04:55:56;19.50;;;12.25;;
61685;SDS011;47592;45.904;8.978;2024-01-30T04:58:21;21.90;;;13.10;;
61685;SDS011;47592;45.904;8.978;2024-01-30T05:00:46;22.23;;;13.10;;
61685;SDS011;47592;45.904;8.978;2024-01-30T05:03:17;22.02;;;11.88;;
61685;SDS011;47592;45.904;8.978;2024-01-30T05:05:47;22.70;;;13.38;;
61685;SDS011;47592;45.904;8.978;2024-01-30T05:08:15;23.67;;;13.68;;
61685;SDS011;47592;45.904;8.978;2024-01-30T05:10:40;24.95;;;13.82;;
61685;SDS011;47592;45.904;8.978;2024-01-30T05:13:06;22.63;;;13.63;;
61685;SDS011;47592;45.904;8.978;2024-01-30T05:15:31;24.90;;;15.32;;
61685;SDS011;47592;45.904;8.978;2024-01-30T05:17:59;25.00;;;14.43;;
61685;SDS011;47592;45.904;8.978;2024-01-30T05:20:27;22.13;;;13.98;;
61685;SDS011;47592;45.904;8.978;2024-01-30T05:22:55;24.85;;;14.18;;
61685;SDS011;47592;45.904;8.978;2024-01-30T05:25:20;27.20;;;14.80;;
61685;SDS011;47592;45.904;8.978;2024-01-30T05:27:46;26.83;;;15.20;;
61685;SDS011;47592;45.904;8.978;2024-01-30T05:30:14;23.05;;;14.40;;
61685;SDS011;47592;45.904;8.978;2024-01-30T05:32:43;24.23;;;14.77;;
61685;SDS011;47592;45.904;8.978;2024-01-30T05:35:11;24.23;;;15.55;;
61685;SDS011;47592;45.904;8.978;2024-01-30T05:37:36;29.73;;;16.30;;
61685;SDS011;47592;45.904;8.978;2024-01-30T05:40:01;25.80;;;16.35;;
61685;SDS011;47592;45.904;8.978;2024-01-30T05:42:32;24.40;;;14.82;;
61685;SDS011;47592;45.904;8.978;2024-01-30T05:44:58;24.17;;;15.52;;
61685;SDS011;47592;45.904;8.978;2024-01-30T05:47:23;26.35;;;15.73;;
61685;SDS011;47592;45.904;8.978;2024-01-30T05:49:49;26.00;;;15.35;;
61685;SDS011;47592;45.904;8.978;2024-01-30T05:52:17;24.83;;;15.23;;
61685;SDS011;47592;45.904;8.978;2024-01-30T05:54:45;21.50;;;14.95;;
61685;SDS011;47592;45.904;8.978;2024-01-30T05:57:10;21.75;;;14.27;;
61685;SDS011;47592;45.904;8.978;2024-01-30T05:59:35;25.63;;;13.45;;
61685;SDS011;47592;45.904;8.978;2024-01-30T06:02:03;23.45;;;13.82;;
61685;SDS011;47592;45.904;8.978;2024-01-30T06:04:28;23.48;;;14.68;;
61685;SDS011;47592;45.904;8.978;2024-01-30T06:06:56;19.40;;;13.35;;
61685;SDS011;47592;45.904;8.978;2024-01-30T06:09:22;20.40;;;13.20;;
61685;SDS011;47592;45.904;8.978;2024-01-30T06:11:47;20.67;;;13.82;;
61685;SDS011;47592;45.904;8.978;2024-01-30T06:14:15;25.80;;;16.27;;
61685;SDS011;47592;45.904;8.978;2024-01-30T06:16:40;25.92;;;18.25;;
61685;SDS011;47592;45.904;8.978;2024-01-30T06:19:05;27.30;;;19.35;;
61685;SDS011;47592;45.904;8.978;2024-01-30T06:21:31;23.75;;;17.35;;
61685;SDS011;47592;45.904;8.978;2024-01-30T06:23:57;24.33;;;16.30;;
61685;SDS011;47592;45.904;8.978;2024-01-30T06:26:22;27.00;;;16.00;;
61685;SDS011;47592;45.904;8.978;2024-01-30T06:28:53;24.90;;;15.32;;
61685;SDS011;47592;45.904;8.978;2024-01-30T06:31:18;22.30;;;13.82;;
61685;SDS011;47592;45.904;8.978;2024-01-30T06:33:46;24.60;;;14.52;;
61685;SDS011;47592;45.904;8.978;2024-01-30T06:36:12;24.55;;;14.85;;
61685;SDS011;47592;45.904;8.978;2024-01-30T06:38:37;20.77;;;13.70;;
61685;SDS011;47592;45.904;8.978;2024-01-30T06:41:05;26.65;;;13.75;;
61685;SDS011;47592;45.904;8.978;2024-01-30T06:43:32;23.33;;;13.85;;
61685;SDS011;47592;45.904;8.978;2024-01-30T06:45:58;21.33;;;13.88;;
61685;SDS011;47592;45.904;8.978;2024-01-30T06:48:24;21.40;;;13.18;;
61685;SDS011;47592;45.904;8.978;2024-01-30T06:50:50;24.27;;;15.13;;
61685;SDS011;47592;45.904;8.978;2024-01-30T06:53:15;22.45;;;13.90;;
61685;SDS011;47592;45.904;8.978;2024-01-30T06:55:45;20.88;;;13.18;;
61685;SDS011;47592;45.904;8.978;2024-01-30T06:58:19;22.83;;;13.45;;
61685;SDS011;47592;45.904;8.978;2024-01-30T07:00:44;20.10;;;12.18;;
61685;SDS011;47592;45.904;8.978;2024-01-30T07:03:10;21.45;;;13.18;;
61685;SDS011;47592;45.904;8.978;2024-01-30T07:05:38;24.10;;;13.75;;
61685;SDS011;47592;45.904;8.978;2024-01-30T07:08:04;21.63;;;13.38;;
61685;SDS011;47592;45.904;8.978;2024-01-30T07:10:32;21.58;;;13.75;;
61685;SDS011;47592;45.904;8.978;2024-01-30T07:12:58;23.50;;;13.50;;
61685;SDS011;47592;45.904;8.978;2024-01-30T07:15:23;25.00;;;14.13;;
61685;SDS011;47592;45.904;8.978;2024-01-30T07:17:48;22.77;;;13.73;;
61685;SDS011;47592;45.904;8.978;2024-01-30T07:20:14;24.17;;;14.25;;
61685;SDS011;47592;45.904;8.978;2024-01-30T07:22:40;23.77;;;13.57;;
61685;SDS011;47592;45.904;8.978;2024-01-30T07:25:06;21.08;;;13.50;;
61685;SDS011;47592;45.904;8.978;2024-01-30T07:27:32;22.48;;;14.68;;
61685;SDS011;47592;45.904;8.978;2024-01-30T07:29:57;22.65;;;13.65;;
61685;SDS011;47592;45.904;8.978;2024-01-30T07:32:22;22.90;;;14.73;;
61685;SDS011;47592;45.904;8.978;2024-01-30T07:34:48;30.75;;;16.80;;
61685;SDS011;47592;45.904;8.978;2024-01-30T07:37:14;28.35;;;18.27;;
61685;SDS011;47592;45.904;8.978;2024-01-30T07:39:40;35.67;;;21.40;;
61685;SDS011;47592;45.904;8.978;2024-01-30T07:42:07;41.42;;;28.15;;
61685;SDS011;47592;45.904;8.978;2024-01-30T07:44:32;44.85;;;30.48;;
61685;SDS011;47592;45.904;8.978;2024-01-30T07:46:57;38.13;;;26.27;;
61685;SDS011;47592;45.904;8.978;2024-01-30T07:49:24;34.13;;;22.52;;
61685;SDS011;47592;45.904;8.978;2024-01-30T07:51:50;28.40;;;19.05;;
61685;SDS011;47592;45.904;8.978;2024-01-30T07:54:18;29.90;;;18.75;;
61685;SDS011;47592;45.904;8.978;2024-01-30T07:56:43;27.73;;;18.50;;
61685;SDS011;47592;45.904;8.978;2024-01-30T07:59:11;28.60;;;17.95;;
61685;SDS011;47592;45.904;8.978;2024-01-30T08:01:37;25.20;;;17.25;;
61685;SDS011;47592;45.904;8.978;2024-01-30T08:04:03;26.52;;;16.25;;
61685;SDS011;47592;45.904;8.978;2024-01-30T08:06:28;24.25;;;14.90;;
61685;SDS011;47592;45.904;8.978;2024-01-30T08:08:56;27.02;;;14.35;;
61685;SDS011;47592;45.904;8.978;2024-01-30T08:11:22;25.42;;;14.80;;
61685;SDS011;47592;45.904;8.978;2024-01-30T08:13:51;23.85;;;14.15;;
61685;SDS011;47592;45.904;8.978;2024-01-30T08:16:17;23.45;;;14.60;;
61685;SDS011;47592;45.904;8.978;2024-01-30T08:18:42;24.38;;;14.65;;
61685;SDS011;47592;45.904;8.978;2024-01-30T08:21:08;22.65;;;14.80;;
61685;SDS011;47592;45.904;8.978;2024-01-30T08:23:34;24.10;;;14.63;;
61685;SDS011;47592;45.904;8.978;2024-01-30T08:26:02;22.35;;;14.93;;
61685;SDS011;47592;45.904;8.978;2024-01-30T08:28:28;23.42;;;15.07;;
61685;SDS011;47592;45.904;8.978;2024-01-30T08:30:53;23.23;;;15.27;;
61685;SDS011;47592;45.904;8.978;2024-01-30T08:33:18;24.63;;;15.10;;
61685;SDS011;47592;45.904;8.978;2024-01-30T08:35:44;25.95;;;15.40;;
61685;SDS011;47592;45.904;8.978;2024-01-30T08:38:11;30.95;;;15.40;;
61685;SDS011;47592;45.904;8.978;2024-01-30T08:40:40;21.98;;;14.25;;
61685;SDS011;47592;45.904;8.978;2024-01-30T08:43:05;20.50;;;14.02;;
61685;SDS011;47592;45.904;8.978;2024-01-30T08:45:31;21.83;;;14.75;;
61685;SDS011;47592;45.904;8.978;2024-01-30T08:47:56;21.90;;;14.65;;
61685;SDS011;47592;45.904;8.978;2024-01-30T08:50:21;23.10;;;14.63;;
61685;SDS011;47592;45.904;8.978;2024-01-30T08:52:47;26.90;;;14.48;;
61685;SDS011;47592;45.904;8.978;2024-01-30T08:55:15;20.73;;;13.77;;
61685;SDS011;47592;45.904;8.978;2024-01-30T08:57:43;21.15;;;13.40;;
61685;SDS011;47592;45.904;8.978;2024-01-30T09:00:08;22.75;;;14.88;;
61685;SDS011;47592;45.904;8.978;2024-01-30T09:02:39;20.33;;;13.55;;
61685;SDS011;47592;45.904;8.978;2024-01-30T09:05:07;21.77;;;13.80;;
61685;SDS011;47592;45.904;8.978;2024-01-30T09:07:32;21.48;;;14.40;;
61685;SDS011;47592;45.904;8.978;2024-01-30T09:10:00;21.58;;;13.57;;
61685;SDS011;47592;45.904;8.978;2024-01-30T09:12:27;21.67;;;13.98;;
61685;SDS011;47592;45.904;8.978;2024-01-30T09:14:55;22.40;;;13.93;;
61685;SDS011;47592;45.904;8.978;2024-01-30T09:17:21;20.05;;;13.52;;
61685;SDS011;47592;45.904;8.978;2024-01-30T09:19:46;21.20;;;13.35;;
61685;SDS011;47592;45.904;8.978;2024-01-30T09:22:16;20.27;;;13.30;;
61685;SDS011;47592;45.904;8.978;2024-01-30T09:24:44;20.42;;;13.48;;
61685;SDS011;47592;45.904;8.978;2024-01-30T09:27:12;20.45;;;12.85;;
61685;SDS011;47592;45.904;8.978;2024-01-30T09:29:37;20.42;;;14.18;;
61685;SDS011;47592;45.904;8.978;2024-01-30T09:32:03;24.17;;;13.60;;
61685;SDS011;47592;45.904;8.978;2024-01-30T09:34:29;23.58;;;12.02;;
61685;SDS011;47592;45.904;8.978;2024-01-30T09:36:58;18.15;;;11.98;;
61685;SDS011;47592;45.904;8.978;2024-01-30T09:39:24;18.45;;;11.48;;
61685;SDS011;47592;45.904;8.978;2024-01-30T09:41:54;17.95;;;11.00;;
61685;SDS011;47592;45.904;8.978;2024-01-30T09:44:25;23.13;;;12.68;;
61685;SDS011;47592;45.904;8.978;2024-01-30T09:46:53;20.98;;;11.82;;
61685;SDS011;47592;45.904;8.978;2024-01-30T09:49:29;18.52;;;11.85;;
61685;SDS011;47592;45.904;8.978;2024-01-30T09:51:58;17.83;;;11.93;;
61685;SDS011;47592;45.904;8.978;2024-01-30T09:54:26;15.15;;;10.32;;
61685;SDS011;47592;45.904;8.978;2024-01-30T09:56:53;20.15;;;11.30;;
61685;SDS011;47592;45.904;8.978;2024-01-30T09:59:21;16.42;;;11.68;;
61685;SDS011;47592;45.904;8.978;2024-01-30T10:01:49;16.80;;;11.65;;
61685;SDS011;47592;45.904;8.978;2024-01-30T10:04:15;17.15;;;10.75;;
61685;SDS011;47592;45.904;8.978;2024-01-30T10:06:43;18.83;;;10.43;;
61685;SDS011;47592;45.904;8.978;2024-01-30T10:09:09;16.30;;;10.57;;
61685;SDS011;47592;45.904;8.978;2024-01-30T10:11:36;14.20;;;9.30;;
61685;SDS011;47592;45.904;8.978;2024-01-30T10:14:02;13.98;;;9.80;;
61685;SDS011;47592;45.904;8.978;2024-01-30T10:16:32;13.93;;;9.32;;
61685;SDS011;47592;45.904;8.978;2024-01-30T10:18:59;15.43;;;9.05;;
61685;SDS011;47592;45.904;8.978;2024-01-30T10:21:25;13.35;;;8.57;;
61685;SDS011;47592;45.904;8.978;2024-01-30T10:23:55;14.95;;;8.95;;
61685;SDS011;47592;45.904;8.978;2024-01-30T10:26:21;16.13;;;9.98;;
61685;SDS011;47592;45.904;8.978;2024-01-30T10:28:47;15.02;;;8.23;;
61685;SDS011;47592;45.904;8.978;2024-01-30T10:31:17;15.35;;;8.25;;
61685;SDS011;47592;45.904;8.978;2024-01-30T10:36:09;12.48;;;8.15;;
61685;SDS011;47592;45.904;8.978;2024-01-30T10:38:38;12.20;;;7.97;;
61685;SDS011;47592;45.904;8.978;2024-01-30T10:41:04;14.93;;;8.25;;
61685;SDS011;47592;45.904;8.978;2024-01-30T10:43:31;12.80;;;7.20;;
61685;SDS011;47592;45.904;8.978;2024-01-30T10:46:10;12.88;;;7.32;;
61685;SDS011;47592;45.904;8.978;2024-01-30T10:48:43;11.50;;;6.57;;
61685;SDS011;47592;45.904;8.978;2024-01-30T10:51:11;10.90;;;6.80;;
61685;SDS011;47592;45.904;8.978;2024-01-30T10:53:38;11.68;;;7.00;;
61685;SDS011;47592;45.904;8.978;2024-01-30T10:56:04;12.05;;;7.45;;
61685;SDS011;47592;45.904;8.978;2024-01-30T10:58:32;13.00;;;7.97;;
61685;SDS011;47592;45.904;8.978;2024-01-30T11:00:57;15.77;;;7.72;;
61685;SDS011;47592;45.904;8.978;2024-01-30T11:03:24;14.05;;;7.35;;
61685;SDS011;47592;45.904;8.978;2024-01-30T11:05:52;11.45;;;6.80;;
61685;SDS011;47592;45.904;8.978;2024-01-30T11:08:26;13.95;;;7.00;;
61685;SDS011;47592;45.904;8.978;2024-01-30T11:10:59;10.90;;;6.35;;
61685;SDS011;47592;45.904;8.978;2024-01-30T11:13:28;12.30;;;6.40;;
61685;SDS011;47592;45.904;8.978;2024-01-30T11:16:00;10.25;;;5.78;;
61685;SDS011;47592;45.904;8.978;2024-01-30T11:18:30;11.07;;;5.68;;
61685;SDS011;47592;45.904;8.978;2024-01-30T11:20:59;11.68;;;6.53;;
61685;SDS011;47592;45.904;8.978;2024-01-30T11:23:30;10.85;;;6.72;;
61685;SDS011;47592;45.904;8.978;2024-01-30T11:25:56;12.50;;;6.27;;
61685;SDS011;47592;45.904;8.978;2024-01-30T11:28:22;10.15;;;5.95;;
61685;SDS011;47592;45.904;8.978;2024-01-30T11:31:02;11.60;;;6.15;;
61685;SDS011;47592;45.904;8.978;2024-01-30T11:33:29;10.13;;;6.10;;
61685;SDS011;47592;45.904;8.978;2024-01-30T11:35:58;10.98;;;6.82;;
61685;SDS011;47592;45.904;8.978;2024-01-30T11:38:31;10.80;;;6.70;;
61685;SDS011;47592;45.904;8.978;2024-01-30T11:40:57;10.75;;;7.00;;
61685;SDS011;47592;45.904;8.978;2024-01-30T11:43:23;10.70;;;6.85;;
61685;SDS011;47592;45.904;8.978;2024-01-30T11:45:48;9.48;;;5.90;;
61685;SDS011;47592;45.904;8.978;2024-01-30T11:48:17;10.53;;;6.80;;
61685;SDS011;47592;45.904;8.978;2024-01-30T11:50:45;10.10;;;5.43;;
61685;SDS011;47592;45.904;8.978;2024-01-30T11:53:11;12.18;;;7.50;;
61685;SDS011;47592;45.904;8.978;2024-01-30T11:55:37;12.15;;;7.72;;
61685;SDS011;47592;45.904;8.978;2024-01-30T11:58:03;11.05;;;7.13;;
61685;SDS011;47592;45.904;8.978;2024-01-30T12:00:29;11.77;;;7.07;;
61685;SDS011;47592;45.904;8.978;2024-01-30T12:02:58;16.75;;;10.07;;
61685;SDS011;47592;45.904;8.978;2024-01-30T12:05:26;13.68;;;7.90;;
61685;SDS011;47592;45.904;8.978;2024-01-30T12:07:51;11.88;;;7.70;;
61685;SDS011;47592;45.904;8.978;2024-01-30T12:10:22;11.75;;;7.13;;
61685;SDS011;47592;45.904;8.978;2024-01-30T12:12:47;13.20;;;7.28;;
61685;SDS011;47592;45.904;8.978;2024-01-30T12:15:15;11.50;;;6.57;;
61685;SDS011;47592;45.904;8.978;2024-01-30T12:17:40;11.25;;;7.10;;
61685;SDS011;47592;45.904;8.978;2024-01-30T12:20:09;11.43;;;7.03;;
61685;SDS011;47592;45.904;8.978;2024-01-30T12:22:44;11.38;;;7.68;;
61685;SDS011;47592;45.904;8.978;2024-01-30T12:25:13;11.60;;;8.05;;
61685;SDS011;47592;45.904;8.978;2024-01-30T12:27:42;11.53;;;6.57;;
61685;SDS011;47592;45.904;8.978;2024-01-30T12:30:09;10.85;;;6.93;;
61685;SDS011;47592;45.904;8.978;2024-01-30T12:32:39;10.63;;;6.20;;
61685;SDS011;47592;45.904;8.978;2024-01-30T12:35:20;10.40;;;6.50;;
61685;SDS011;47592;45.904;8.978;2024-01-30T12:37:46;11.60;;;6.38;;
61685;SDS011;47592;45.904;8.978;2024-01-30T12:40:15;10.63;;;6.45;;
61685;SDS011;47592;45.904;8.978;2024-01-30T12:42:41;12.38;;;7.15;;
61685;SDS011;47592;45.904;8.978;2024-01-30T12:45:11;10.95;;;6.47;;
61685;SDS011;47592;45.904;8.978;2024-01-30T12:47:36;11.68;;;6.60;;
61685;SDS011;47592;45.904;8.978;2024-01-30T12:50:04;12.15;;;7.10;;
61685;SDS011;47592;45.904;8.978;2024-01-30T12:52:32;13.45;;;7.78;;
61685;SDS011;47592;45.904;8.978;2024-01-30T12:55:00;12.23;;;7.43;;
61685;SDS011;47592;45.904;8.978;2024-01-30T12:57:29;12.23;;;7.50;;
61685;SDS011;47592;45.904;8.978;2024-01-30T12:59:54;14.05;;;7.32;;
61685;SDS011;47592;45.904;8.978;2024-01-30T13:02:22;14.05;;;8.15;;
61685;SDS011;47592;45.904;8.978;2024-01-30T13:04:50;15.43;;;8.85;;
61685;SDS011;47592;45.904;8.978;2024-01-30T13:07:17;14.05;;;8.07;;
61685;SDS011;47592;45.904;8.978;2024-01-30T13:09:45;16.27;;;9.18;;
61685;SDS011;47592;45.904;8.978;2024-01-30T13:12:11;16.00;;;9.13;;
61685;SDS011;47592;45.904;8.978;2024-01-30T13:14:36;16.27;;;9.68;;
61685;SDS011;47592;45.904;8.978;2024-01-30T13:17:04;18.65;;;10.60;;
61685;SDS011;47592;45.904;8.978;2024-01-30T13:19:32;23.52;;;12.80;;
61685;SDS011;47592;45.904;8.978;2024-01-30T13:21:57;20.40;;;10.55;;
61685;SDS011;47592;45.904;8.978;2024-01-30T13:24:23;17.02;;;9.65;;
61685;SDS011;47592;45.904;8.978;2024-01-30T13:26:48;14.50;;;9.30;;
61685;SDS011;47592;45.904;8.978;2024-01-30T13:29:14;17.10;;;9.55;;
61685;SDS011;47592;45.904;8.978;2024-01-30T13:31:41;22.88;;;12.52;;
61685;SDS011;47592;45.904;8.978;2024-01-30T13:34:11;21.95;;;12.52;;
61685;SDS011;47592;45.904;8.978;2024-01-30T13:36:37;20.08;;;13.27;;
61685;SDS011;47592;45.904;8.978;2024-01-30T13:39:08;22.42;;;13.40;;
61685;SDS011;47592;45.904;8.978;2024-01-30T13:41:35;23.30;;;13.40;;
61685;SDS011;47592;45.904;8.978;2024-01-30T13:44:03;26.02;;;14.75;;
61685;SDS011;47592;45.904;8.978;2024-01-30T13:46:29;24.15;;;14.20;;
61685;SDS011;47592;45.904;8.978;2024-01-30T13:48:55;22.33;;;12.93;;
61685;SDS011;47592;45.904;8.978;2024-01-30T13:51:21;24.73;;;13.35;;
61685;SDS011;47592;45.904;8.978;2024-01-30T13:53:46;22.17;;;13.90;;
61685;SDS011;47592;45.904;8.978;2024-01-30T13:56:11;21.02;;;13.10;;
61685;SDS011;47592;45.904;8.978;2024-01-30T13:58:37;21.42;;;12.88;;
61685;SDS011;47592;45.904;8.978;2024-01-30T14:01:03;19.48;;;12.75;;
61685;SDS011;47592;45.904;8.978;2024-01-30T14:03:30;22.80;;;13.25;;
61685;SDS011;47592;45.904;8.978;2024-01-30T14:05:57;21.15;;;13.18;;
61685;SDS011;47592;45.904;8.978;2024-01-30T14:08:23;24.63;;;13.93;;
61685;SDS011;47592;45.904;8.978;2024-01-30T14:10:51;23.25;;;13.90;;
61685;SDS011;47592;45.904;8.978;2024-01-30T14:13:17;23.70;;;13.80;;
61685;SDS011;47592;45.904;8.978;2024-01-30T14:15:42;26.63;;;14.35;;
61685;SDS011;47592;45.904;8.978;2024-01-30T14:18:08;27.20;;;14.85;;
61685;SDS011;47592;45.904;8.978;2024-01-30T14:20:34;21.80;;;13.43;;
61685;SDS011;47592;45.904;8.978;2024-01-30T14:23:02;22.65;;;13.38;;